PWSweather.com
Personal Weather Stations
Station Observations
WATERF01
WaterfordIE

WaterfordIE

Lat: 52.2412507, Lon: -7.1414691

Elevation: 65

Station Type: Davis Vantage Vue

Latest ConditionsUpdated 10:30:04 PM GMT Saturday, Dec 16, 2017
Currently Today's Max Today's Min Today's Average
Temperature 42.6°F5.9°C 46.9°F8.3°C 34.8°F1.6°C 40.8°F4.9°C
Dew Point 41.3°F5.2°C 44.7°F7.1°C 33.2°F0.7°C 39.1°F3.9°C
Winds Calm Calm 8.1 mph NW13.0 kmh NW - 2.3 mph 3.7 kmh
Wind Gusts -- 11.5 mph18.5 kmh - -
Humidity 95% 95% 92% 94%
Pressure 30.25 in1024.4 mb 30.25 in1024.4 mb 30.10 in1019.3 mb -
Hour Temp Dew Point Humidity Winds Wind Gusts Pressure Precip Precip Rate Daily Precip Total
10:30 PM 42.6°F5.9°C 41.3°F5.2°C 95% Calm Calm -- 30.25 in1024.4 mb - 0.00 in0.0 mm 0.00 in0.0 mm
10:20 PM 42.4°F5.8°C 41.1°F5.1°C 95% Calm Calm -- 30.25 in1024.4 mb - 0.00 in0.0 mm 0.00 in0.0 mm
10:10 PM 42.4°F5.8°C 41.0°F5.0°C 95% Calm Calm 1.2 mph1.9 kmh 30.25 in1024.4 mb - 0.00 in0.0 mm 0.00 in0.0 mm
10:00 PM 42.5°F5.8°C 41.2°F5.1°C 95% Calm Calm 2.3 mph3.7 kmh 30.25 in1024.4 mb - 0.00 in0.0 mm 0.00 in0.0 mm
09:50 PM 42.6°F5.9°C 41.2°F5.1°C 95% Calm Calm 1.2 mph1.9 kmh 30.25 in1024.4 mb - 0.00 in0.0 mm 0.00 in0.0 mm
09:40 PM 43.2°F6.2°C 41.9°F5.5°C 95% Calm Calm 2.3 mph3.7 kmh 30.25 in1024.4 mb - 0.00 in0.0 mm 0.00 in0.0 mm
09:30 PM 43.1°F6.2°C 41.7°F5.4°C 95% Calm Calm -- 30.25 in1024.4 mb - 0.00 in0.0 mm 0.00 in0.0 mm
09:20 PM 42.7°F5.9°C 41.4°F5.2°C 95% Calm Calm -- 30.25 in1024.4 mb - 0.00 in0.0 mm 0.00 in0.0 mm
09:10 PM 42.6°F5.9°C 41.3°F5.2°C 95% 1.2 mph SW1.9 kmh SW 2.3 mph3.7 kmh 30.25 in1024.4 mb - 0.00 in0.0 mm 0.00 in0.0 mm
09:00 PM 42.9°F6.1°C 41.6°F5.3°C 95% 1.2 mph SW1.9 kmh SW 2.3 mph3.7 kmh 30.25 in1024.4 mb - 0.00 in0.0 mm 0.00 in0.0 mm
08:50 PM 43.3°F6.3°C 42.0°F5.6°C 95% Calm Calm -- 30.25 in1024.4 mb - 0.00 in0.0 mm 0.00 in0.0 mm
08:40 PM 43.8°F6.6°C 42.4°F5.8°C 95% Calm Calm -- 30.25 in1024.4 mb - 0.00 in0.0 mm 0.00 in0.0 mm
08:30 PM 44.2°F6.8°C 42.6°F5.9°C 94% Calm Calm 1.2 mph1.9 kmh 30.25 in1024.4 mb - 0.00 in0.0 mm 0.00 in0.0 mm
08:20 PM 44.6°F7.0°C 43.0°F6.1°C 94% Calm Calm -- 30.25 in1024.4 mb - 0.00 in0.0 mm 0.00 in0.0 mm
08:10 PM 44.7°F7.1°C 43.4°F6.3°C 95% Calm Calm 1.2 mph1.9 kmh 30.25 in1024.4 mb - 0.00 in0.0 mm 0.00 in0.0 mm
08:00 PM 44.9°F7.2°C 43.2°F6.2°C 94% 2.3 mph W3.7 kmh W 2.3 mph3.7 kmh 30.25 in1024.4 mb - 0.00 in0.0 mm 0.00 in0.0 mm
07:50 PM 44.9°F7.2°C 43.3°F6.3°C 94% 1.2 mph W1.9 kmh W 2.3 mph3.7 kmh 30.25 in1024.4 mb - 0.00 in0.0 mm 0.00 in0.0 mm
07:40 PM 45.0°F7.2°C 43.4°F6.3°C 94% 2.3 mph W3.7 kmh W 4.6 mph7.4 kmh 30.25 in1024.4 mb - 0.00 in0.0 mm 0.00 in0.0 mm
07:30 PM 45.2°F7.3°C 43.5°F6.4°C 94% 3.5 mph W5.6 kmh W 5.8 mph9.3 kmh 30.25 in1024.4 mb - 0.00 in0.0 mm 0.00 in0.0 mm
07:20 PM 45.3°F7.4°C 43.7°F6.5°C 94% 2.3 mph WNW3.7 kmh WNW 5.8 mph9.3 kmh 30.25 in1024.4 mb - 0.00 in0.0 mm 0.00 in0.0 mm
07:10 PM 45.3°F7.4°C 43.7°F6.5°C 94% 2.3 mph WNW3.7 kmh WNW 5.8 mph9.3 kmh 30.25 in1024.4 mb - 0.00 in0.0 mm 0.00 in0.0 mm
07:00 PM 45.3°F7.4°C 43.7°F6.5°C 94% 3.5 mph W5.6 kmh W 5.8 mph9.3 kmh 30.25 in1024.4 mb - 0.00 in0.0 mm 0.00 in0.0 mm
06:50 PM 45.1°F7.3°C 43.5°F6.4°C 94% 3.5 mph WNW5.6 kmh WNW 5.8 mph9.3 kmh 30.25 in1024.4 mb - 0.00 in0.0 mm 0.00 in0.0 mm
06:40 PM 45.3°F7.4°C 43.7°F6.5°C 94% 2.3 mph W3.7 kmh W 4.6 mph7.4 kmh 30.25 in1024.4 mb - 0.00 in0.0 mm 0.00 in0.0 mm
06:30 PM 45.5°F7.5°C 43.6°F6.4°C 93% 2.3 mph WSW3.7 kmh WSW 4.6 mph7.4 kmh 30.25 in1024.4 mb - 0.00 in0.0 mm 0.00 in0.0 mm
06:20 PM 45.5°F7.5°C 43.6°F6.4°C 93% 1.2 mph W1.9 kmh W 2.3 mph3.7 kmh 30.25 in1024.4 mb - 0.00 in0.0 mm 0.00 in0.0 mm
06:10 PM 45.4°F7.4°C 43.5°F6.4°C 93% Calm Calm 2.3 mph3.7 kmh 30.25 in1024.4 mb - 0.00 in0.0 mm 0.00 in0.0 mm
06:00 PM 45.4°F7.4°C 43.4°F6.3°C 93% Calm Calm -- 30.24 in1024.0 mb - 0.00 in0.0 mm 0.00 in0.0 mm
05:50 PM 45.3°F7.4°C 43.4°F6.3°C 93% 2.3 mph W3.7 kmh W 2.3 mph3.7 kmh 30.24 in1024.0 mb - 0.00 in0.0 mm 0.00 in0.0 mm
05:40 PM 45.3°F7.4°C 43.4°F6.3°C 93% 2.3 mph W3.7 kmh W 4.6 mph7.4 kmh 30.24 in1024.0 mb - 0.00 in0.0 mm 0.00 in0.0 mm
05:30 PM 45.4°F7.4°C 43.4°F6.3°C 93% 1.2 mph W1.9 kmh W 2.3 mph3.7 kmh 30.24 in1024.0 mb - 0.00 in0.0 mm 0.00 in0.0 mm
05:20 PM 45.6°F7.6°C 43.7°F6.5°C 93% Calm Calm 2.3 mph3.7 kmh 30.24 in1024.0 mb - 0.00 in0.0 mm 0.00 in0.0 mm
05:10 PM 45.9°F7.7°C 43.7°F6.5°C 92% 2.3 mph W3.7 kmh W 2.3 mph3.7 kmh 30.24 in1024.0 mb - 0.00 in0.0 mm 0.00 in0.0 mm
05:00 PM 45.9°F7.7°C 43.9°F6.6°C 93% 1.2 mph WNW1.9 kmh WNW 2.3 mph3.7 kmh 30.24 in1024.0 mb - 0.00 in0.0 mm 0.00 in0.0 mm
04:50 PM 45.9°F7.7°C 43.7°F6.5°C 92% 1.2 mph WNW1.9 kmh WNW 2.3 mph3.7 kmh 30.24 in1024.0 mb - 0.00 in0.0 mm 0.00 in0.0 mm
04:40 PM 46.1°F7.8°C 43.9°F6.6°C 92% 3.5 mph WNW5.6 kmh WNW 8.1 mph13.0 kmh 30.24 in1024.0 mb - 0.00 in0.0 mm 0.00 in0.0 mm
04:30 PM 46.1°F7.8°C 43.9°F6.6°C 92% 2.3 mph WNW3.7 kmh WNW 5.8 mph9.3 kmh 30.23 in1023.7 mb - 0.00 in0.0 mm 0.00 in0.0 mm
04:20 PM 46.0°F7.8°C 43.8°F6.6°C 92% 2.3 mph WNW3.7 kmh WNW 8.1 mph13.0 kmh 30.23 in1023.7 mb - 0.00 in0.0 mm 0.00 in0.0 mm
04:10 PM 45.8°F7.7°C 43.9°F6.6°C 93% 3.5 mph W5.6 kmh W 6.9 mph11.1 kmh 30.23 in1023.7 mb - 0.00 in0.0 mm 0.00 in0.0 mm
04:00 PM 46.0°F7.8°C 44.1°F6.7°C 93% 1.2 mph W1.9 kmh W 2.3 mph3.7 kmh 30.22 in1023.4 mb - 0.00 in0.0 mm 0.00 in0.0 mm
03:50 PM 46.2°F7.9°C 44.3°F6.8°C 93% 2.3 mph WNW3.7 kmh WNW 2.3 mph3.7 kmh 30.22 in1023.4 mb - 0.00 in0.0 mm 0.00 in0.0 mm
03:40 PM 46.3°F7.9°C 44.4°F6.9°C 93% 3.5 mph WNW5.6 kmh WNW 8.1 mph13.0 kmh 30.22 in1023.4 mb - 0.00 in0.0 mm 0.00 in0.0 mm
03:30 PM 46.3°F7.9°C 44.4°F6.9°C 93% 2.3 mph WNW3.7 kmh WNW 5.8 mph9.3 kmh 30.21 in1023.0 mb - 0.00 in0.0 mm 0.00 in0.0 mm
03:20 PM 46.3°F7.9°C 44.4°F6.9°C 93% 4.6 mph WNW7.4 kmh WNW 8.1 mph13.0 kmh 30.22 in1023.4 mb - 0.00 in0.0 mm 0.00 in0.0 mm
03:10 PM 46.3°F7.9°C 44.4°F6.9°C 93% 1.2 mph NW1.9 kmh NW 4.6 mph7.4 kmh 30.22 in1023.4 mb - 0.00 in0.0 mm 0.00 in0.0 mm
03:00 PM 46.3°F7.9°C 44.4°F6.9°C 93% 3.5 mph NW5.6 kmh NW 6.9 mph11.1 kmh 30.22 in1023.4 mb - 0.00 in0.0 mm 0.00 in0.0 mm
02:50 PM 46.5°F8.1°C 44.6°F7.0°C 93% 4.6 mph NW7.4 kmh NW 6.9 mph11.1 kmh 30.21 in1023.0 mb - 0.00 in0.0 mm 0.00 in0.0 mm
02:40 PM 46.7°F8.2°C 44.5°F6.9°C 92% 4.6 mph WNW7.4 kmh WNW 8.1 mph13.0 kmh 30.21 in1023.0 mb - 0.00 in0.0 mm 0.00 in0.0 mm
02:30 PM 46.7°F8.2°C 44.5°F6.9°C 92% 1.2 mph NW1.9 kmh NW 5.8 mph9.3 kmh 30.20 in1022.7 mb - 0.00 in0.0 mm 0.00 in0.0 mm
02:20 PM 46.9°F8.3°C 44.7°F7.1°C 92% 3.5 mph NW5.6 kmh NW 6.9 mph11.1 kmh 30.20 in1022.7 mb - 0.00 in0.0 mm 0.00 in0.0 mm
02:10 PM 46.8°F8.2°C 44.6°F7.0°C 92% 4.6 mph WNW7.4 kmh WNW 8.1 mph13.0 kmh 30.20 in1022.7 mb - 0.00 in0.0 mm 0.00 in0.0 mm
02:00 PM 46.5°F8.1°C 44.6°F7.0°C 93% 3.5 mph WNW5.6 kmh WNW 5.8 mph9.3 kmh 30.20 in1022.7 mb - 0.00 in0.0 mm 0.00 in0.0 mm
01:50 PM 46.2°F7.9°C 44.3°F6.8°C 93% 2.3 mph NW3.7 kmh NW 6.9 mph11.1 kmh 30.20 in1022.7 mb - 0.00 in0.0 mm 0.00 in0.0 mm
01:40 PM 46.0°F7.8°C 44.1°F6.7°C 93% 4.6 mph WNW7.4 kmh WNW 8.1 mph13.0 kmh 30.20 in1022.7 mb - 0.00 in0.0 mm 0.00 in0.0 mm
01:30 PM 45.7°F7.6°C 43.8°F6.6°C 93% 3.5 mph W5.6 kmh W 5.8 mph9.3 kmh 30.20 in1022.7 mb - 0.00 in0.0 mm 0.00 in0.0 mm
01:20 PM 45.3°F7.4°C 43.7°F6.5°C 94% 4.6 mph WNW7.4 kmh WNW 6.9 mph11.1 kmh 30.20 in1022.7 mb - 0.00 in0.0 mm 0.00 in0.0 mm
01:10 PM 44.8°F7.1°C 43.2°F6.2°C 94% Calm Calm -- 30.20 in1022.7 mb - 0.00 in0.0 mm 0.00 in0.0 mm
01:00 PM 44.5°F6.9°C 42.9°F6.1°C 94% 1.2 mph W1.9 kmh W 2.3 mph3.7 kmh 30.20 in1022.7 mb - 0.00 in0.0 mm 0.00 in0.0 mm
12:50 PM 44.4°F6.9°C 42.7°F5.9°C 94% 3.5 mph WNW5.6 kmh WNW 5.8 mph9.3 kmh 30.20 in1022.7 mb - 0.00 in0.0 mm 0.00 in0.0 mm
12:40 PM 44.0°F6.7°C 42.4°F5.8°C 94% 1.2 mph NW1.9 kmh NW 4.6 mph7.4 kmh 30.20 in1022.7 mb - 0.00 in0.0 mm 0.00 in0.0 mm
12:30 PM 43.5°F6.4°C 41.9°F5.5°C 94% 2.3 mph NW3.7 kmh NW 4.6 mph7.4 kmh 30.20 in1022.7 mb - 0.00 in0.0 mm 0.00 in0.0 mm
12:20 PM 43.2°F6.2°C 41.6°F5.3°C 94% Calm Calm 2.3 mph3.7 kmh 30.20 in1022.7 mb - 0.00 in0.0 mm 0.00 in0.0 mm
12:10 PM 43.0°F6.1°C 41.4°F5.2°C 94% 2.3 mph NW3.7 kmh NW 4.6 mph7.4 kmh 30.20 in1022.7 mb - 0.00 in0.0 mm 0.00 in0.0 mm
12:00 PM 42.6°F5.9°C 41.0°F5.0°C 94% Calm Calm 1.2 mph1.9 kmh 30.20 in1022.7 mb - 0.00 in0.0 mm 0.00 in0.0 mm
11:50 AM 42.2°F5.7°C 40.3°F4.6°C 93% Calm Calm -- 30.20 in1022.7 mb - 0.00 in0.0 mm 0.00 in0.0 mm
11:40 AM 42.1°F5.6°C 40.2°F4.6°C 93% Calm Calm -- 30.20 in1022.7 mb - 0.00 in0.0 mm 0.00 in0.0 mm
11:30 AM 41.8°F5.4°C 39.9°F4.4°C 93% Calm Calm -- 30.20 in1022.7 mb - 0.00 in0.0 mm 0.00 in0.0 mm
11:20 AM 41.4°F5.2°C 39.6°F4.2°C 93% Calm Calm -- 30.21 in1023.0 mb - 0.00 in0.0 mm 0.00 in0.0 mm
11:10 AM 41.1°F5.1°C 39.2°F4.0°C 93% Calm Calm -- 30.21 in1023.0 mb - 0.00 in0.0 mm 0.00 in0.0 mm
11:00 AM 41.1°F5.1°C 39.2°F4.0°C 93% Calm Calm -- 30.21 in1023.0 mb - 0.00 in0.0 mm 0.00 in0.0 mm
10:50 AM 41.1°F5.1°C 39.5°F4.2°C 94% Calm Calm -- 30.21 in1023.0 mb - 0.00 in0.0 mm 0.00 in0.0 mm
10:40 AM 40.9°F4.9°C 39.4°F4.1°C 94% Calm Calm -- 30.20 in1022.7 mb - 0.00 in0.0 mm 0.00 in0.0 mm
10:30 AM 40.6°F4.8°C 39.0°F3.9°C 94% Calm Calm 2.3 mph3.7 kmh 30.20 in1022.7 mb - 0.00 in0.0 mm 0.00 in0.0 mm
10:20 AM 40.1°F4.5°C 38.5°F3.6°C 94% Calm Calm -- 30.20 in1022.7 mb - 0.00 in0.0 mm 0.00 in0.0 mm
10:10 AM 39.5°F4.2°C 37.9°F3.3°C 94% Calm Calm -- 30.20 in1022.7 mb - 0.00 in0.0 mm 0.00 in0.0 mm
10:00 AM 38.7°F3.7°C 37.2°F2.9°C 94% Calm Calm -- 30.20 in1022.7 mb - 0.00 in0.0 mm 0.00 in0.0 mm
09:50 AM 38.3°F3.5°C 36.7°F2.6°C 94% Calm Calm -- 30.19 in1022.4 mb - 0.00 in0.0 mm 0.00 in0.0 mm
09:40 AM 38.1°F3.4°C 36.5°F2.5°C 94% Calm Calm -- 30.19 in1022.4 mb - 0.00 in0.0 mm 0.00 in0.0 mm
09:30 AM 38.0°F3.3°C 36.1°F2.3°C 93% Calm Calm -- 30.19 in1022.4 mb - 0.00 in0.0 mm 0.00 in0.0 mm
09:20 AM 38.0°F3.3°C 36.1°F2.3°C 93% Calm Calm 2.3 mph3.7 kmh 30.19 in1022.4 mb - 0.00 in0.0 mm 0.00 in0.0 mm
09:10 AM 38.1°F3.4°C 36.0°F2.2°C 92% 1.2 mph WNW1.9 kmh WNW 4.6 mph7.4 kmh 30.19 in1022.4 mb - 0.00 in0.0 mm 0.00 in0.0 mm
09:00 AM 37.7°F3.2°C 35.6°F2.0°C 92% 3.5 mph NW5.6 kmh NW 5.8 mph9.3 kmh 30.19 in1022.4 mb - 0.00 in0.0 mm 0.00 in0.0 mm
08:50 AM 37.2°F2.9°C 35.4°F1.9°C 93% Calm Calm -- 30.19 in1022.4 mb - 0.00 in0.0 mm 0.00 in0.0 mm
08:40 AM 37.1°F2.8°C 35.3°F1.8°C 93% 1.2 mph WNW1.9 kmh WNW 2.3 mph3.7 kmh 30.19 in1022.4 mb - 0.00 in0.0 mm 0.00 in0.0 mm
08:30 AM 36.8°F2.7°C 35.0°F1.7°C 93% 2.3 mph W3.7 kmh W 2.3 mph3.7 kmh 30.19 in1022.4 mb - 0.00 in0.0 mm 0.00 in0.0 mm
08:20 AM 36.7°F2.6°C 34.9°F1.6°C 93% Calm Calm 1.2 mph1.9 kmh 30.19 in1022.4 mb - 0.00 in0.0 mm 0.00 in0.0 mm
08:10 AM 36.7°F2.6°C 34.9°F1.6°C 93% 2.3 mph WNW3.7 kmh WNW 5.8 mph9.3 kmh 30.19 in1022.4 mb - 0.00 in0.0 mm 0.00 in0.0 mm
08:00 AM 36.6°F2.6°C 34.8°F1.6°C 93% 2.3 mph W3.7 kmh W 2.3 mph3.7 kmh 30.19 in1022.4 mb - 0.00 in0.0 mm 0.00 in0.0 mm
07:50 AM 36.4°F2.4°C 34.6°F1.4°C 93% 1.2 mph W1.9 kmh W 2.3 mph3.7 kmh 30.18 in1022.0 mb - 0.00 in0.0 mm 0.00 in0.0 mm
07:40 AM 35.9°F2.2°C 34.3°F1.3°C 94% 2.3 mph W3.7 kmh W 2.3 mph3.7 kmh 30.18 in1022.0 mb - 0.00 in0.0 mm 0.00 in0.0 mm
07:30 AM 35.2°F1.8°C 33.9°F1.1°C 95% 2.3 mph W3.7 kmh W 5.8 mph9.3 kmh 30.18 in1022.0 mb - 0.00 in0.0 mm 0.00 in0.0 mm
07:20 AM 34.8°F1.6°C 33.2°F0.7°C 94% 2.3 mph WNW3.7 kmh WNW 4.6 mph7.4 kmh 30.18 in1022.0 mb - 0.00 in0.0 mm 0.00 in0.0 mm
07:10 AM 34.8°F1.6°C 33.2°F0.7°C 94% 1.2 mph WNW1.9 kmh WNW 2.3 mph3.7 kmh 30.18 in1022.0 mb - 0.00 in0.0 mm 0.00 in0.0 mm
07:00 AM 35.2°F1.8°C 33.4°F0.8°C 93% Calm Calm 2.3 mph3.7 kmh 30.18 in1022.0 mb - 0.00 in0.0 mm 0.00 in0.0 mm
06:50 AM 36.1°F2.3°C 34.3°F1.3°C 93% 1.2 mph W1.9 kmh W 2.3 mph3.7 kmh 30.17 in1021.7 mb - 0.00 in0.0 mm 0.00 in0.0 mm
06:40 AM 36.5°F2.5°C 34.7°F1.5°C 93% 3.5 mph WNW5.6 kmh WNW 8.1 mph13.0 kmh 30.17 in1021.7 mb - 0.00 in0.0 mm 0.00 in0.0 mm
06:30 AM 36.5°F2.5°C 34.7°F1.5°C 93% 3.5 mph WNW5.6 kmh WNW 8.1 mph13.0 kmh 30.17 in1021.7 mb - 0.00 in0.0 mm 0.00 in0.0 mm
06:20 AM 36.4°F2.4°C 34.6°F1.4°C 93% 4.6 mph NW7.4 kmh NW 9.2 mph14.8 kmh 30.17 in1021.7 mb - 0.00 in0.0 mm 0.00 in0.0 mm
06:10 AM 36.3°F2.4°C 34.5°F1.4°C 93% 4.6 mph NW7.4 kmh NW 8.1 mph13.0 kmh 30.16 in1021.3 mb - 0.00 in0.0 mm 0.00 in0.0 mm
06:00 AM 36.5°F2.5°C 34.6°F1.4°C 93% 4.6 mph NW7.4 kmh NW 5.8 mph9.3 kmh 30.16 in1021.3 mb - 0.00 in0.0 mm 0.00 in0.0 mm
05:50 AM 36.5°F2.5°C 34.7°F1.5°C 93% 4.6 mph NW7.4 kmh NW 5.8 mph9.3 kmh 30.16 in1021.3 mb - 0.00 in0.0 mm 0.00 in0.0 mm
05:40 AM 36.3°F2.4°C 34.7°F1.5°C 94% 6.9 mph NW11.1 kmh NW 9.2 mph14.8 kmh 30.16 in1021.3 mb - 0.00 in0.0 mm 0.00 in0.0 mm
05:30 AM 36.0°F2.2°C 34.4°F1.3°C 94% 5.8 mph NW9.3 kmh NW 8.1 mph13.0 kmh 30.16 in1021.3 mb - 0.00 in0.0 mm 0.00 in0.0 mm
05:20 AM 36.0°F2.2°C 34.4°F1.3°C 94% 4.6 mph NW7.4 kmh NW 6.9 mph11.1 kmh 30.16 in1021.3 mb - 0.00 in0.0 mm 0.00 in0.0 mm
05:10 AM 36.2°F2.3°C 34.6°F1.4°C 94% 4.6 mph NW7.4 kmh NW 6.9 mph11.1 kmh 30.16 in1021.3 mb - 0.00 in0.0 mm 0.00 in0.0 mm
05:00 AM 36.1°F2.3°C 34.5°F1.4°C 94% 4.6 mph NW7.4 kmh NW 9.2 mph14.8 kmh 30.17 in1021.7 mb - 0.00 in0.0 mm 0.00 in0.0 mm
04:50 AM 36.1°F2.3°C 34.5°F1.4°C 94% 5.8 mph NW9.3 kmh NW 9.2 mph14.8 kmh 30.16 in1021.3 mb - 0.00 in0.0 mm 0.00 in0.0 mm
04:40 AM 36.1°F2.3°C 34.5°F1.4°C 94% 8.1 mph NW13.0 kmh NW 9.2 mph14.8 kmh 30.16 in1021.3 mb - 0.00 in0.0 mm 0.00 in0.0 mm
04:30 AM 35.9°F2.2°C 34.3°F1.3°C 94% 5.8 mph NW9.3 kmh NW 9.2 mph14.8 kmh 30.16 in1021.3 mb - 0.00 in0.0 mm 0.00 in0.0 mm
04:20 AM 35.6°F2.0°C 34.1°F1.2°C 94% 6.9 mph NW11.1 kmh NW 11.5 mph18.5 kmh 30.16 in1021.3 mb - 0.00 in0.0 mm 0.00 in0.0 mm
04:10 AM 35.4°F1.9°C 33.8°F1.0°C 94% 5.8 mph NW9.3 kmh NW 8.1 mph13.0 kmh 30.15 in1021.0 mb - 0.00 in0.0 mm 0.00 in0.0 mm
04:00 AM 35.6°F2.0°C 34.0°F1.1°C 94% 3.5 mph NW5.6 kmh NW 5.8 mph9.3 kmh 30.14 in1020.7 mb - 0.00 in0.0 mm 0.00 in0.0 mm
03:50 AM 35.8°F2.1°C 34.2°F1.2°C 94% 3.5 mph NW5.6 kmh NW 5.8 mph9.3 kmh 30.14 in1020.7 mb - 0.00 in0.0 mm 0.00 in0.0 mm
03:40 AM 35.7°F2.1°C 34.1°F1.2°C 94% 2.3 mph NNW3.7 kmh NNW 4.6 mph7.4 kmh 30.14 in1020.7 mb - 0.00 in0.0 mm 0.00 in0.0 mm
03:30 AM 35.3°F1.8°C 34.0°F1.1°C 95% 1.2 mph NNW1.9 kmh NNW 2.3 mph3.7 kmh 30.15 in1021.0 mb - 0.00 in0.0 mm 0.00 in0.0 mm
03:20 AM 35.5°F1.9°C 33.9°F1.1°C 94% Calm Calm -- 30.15 in1021.0 mb - 0.00 in0.0 mm 0.00 in0.0 mm
03:10 AM 35.7°F2.1°C 34.1°F1.2°C 94% Calm Calm 2.3 mph3.7 kmh 30.14 in1020.7 mb - 0.00 in0.0 mm 0.00 in0.0 mm
03:00 AM 35.8°F2.1°C 34.2°F1.2°C 94% 3.5 mph NW5.6 kmh NW 5.8 mph9.3 kmh 30.14 in1020.7 mb - 0.00 in0.0 mm 0.00 in0.0 mm
02:50 AM 35.9°F2.2°C 34.3°F1.3°C 94% 2.3 mph NW3.7 kmh NW 4.6 mph7.4 kmh 30.14 in1020.7 mb - 0.00 in0.0 mm 0.00 in0.0 mm
02:40 AM 35.9°F2.2°C 34.3°F1.3°C 94% 2.3 mph NW3.7 kmh NW 6.9 mph11.1 kmh 30.13 in1020.3 mb - 0.00 in0.0 mm 0.00 in0.0 mm
02:30 AM 35.8°F2.1°C 34.2°F1.2°C 94% 1.2 mph NW1.9 kmh NW 2.3 mph3.7 kmh 30.13 in1020.3 mb - 0.00 in0.0 mm 0.00 in0.0 mm
02:20 AM 36.0°F2.2°C 34.5°F1.4°C 94% 3.5 mph NW5.6 kmh NW 8.1 mph13.0 kmh 30.13 in1020.3 mb - 0.00 in0.0 mm 0.00 in0.0 mm
02:10 AM 36.2°F2.3°C 34.6°F1.4°C 94% 3.5 mph NW5.6 kmh NW 5.8 mph9.3 kmh 30.13 in1020.3 mb - 0.00 in0.0 mm 0.00 in0.0 mm
02:00 AM 36.3°F2.4°C 34.7°F1.5°C 94% 5.8 mph NW9.3 kmh NW 9.2 mph14.8 kmh 30.13 in1020.3 mb - 0.00 in0.0 mm 0.00 in0.0 mm
01:50 AM 36.3°F2.4°C 34.7°F1.5°C 94% 5.8 mph NW9.3 kmh NW 8.1 mph13.0 kmh 30.12 in1020.0 mb - 0.00 in0.0 mm 0.00 in0.0 mm
01:40 AM 36.1°F2.3°C 34.5°F1.4°C 94% 5.8 mph NW9.3 kmh NW 8.1 mph13.0 kmh 30.12 in1020.0 mb - 0.00 in0.0 mm 0.00 in0.0 mm
01:30 AM 36.0°F2.2°C 34.4°F1.3°C 94% 4.6 mph NW7.4 kmh NW 8.1 mph13.0 kmh 30.12 in1020.0 mb - 0.00 in0.0 mm 0.00 in0.0 mm
01:20 AM 35.9°F2.2°C 34.3°F1.3°C 94% 3.5 mph NW5.6 kmh NW 5.8 mph9.3 kmh 30.12 in1020.0 mb - 0.00 in0.0 mm 0.00 in0.0 mm
01:10 AM 36.2°F2.3°C 34.6°F1.4°C 94% 1.2 mph NW1.9 kmh NW 2.3 mph3.7 kmh 30.12 in1020.0 mb - 0.00 in0.0 mm 0.00 in0.0 mm
01:00 AM 36.3°F2.4°C 34.7°F1.5°C 94% 3.5 mph NW5.6 kmh NW 5.8 mph9.3 kmh 30.11 in1019.6 mb - 0.00 in0.0 mm 0.00 in0.0 mm
12:50 AM 36.5°F2.5°C 34.9°F1.6°C 94% 3.5 mph NW5.6 kmh NW 8.1 mph13.0 kmh 30.11 in1019.6 mb - 0.00 in0.0 mm 0.00 in0.0 mm
12:40 AM 36.6°F2.6°C 35.0°F1.7°C 94% 3.5 mph NW5.6 kmh NW 5.8 mph9.3 kmh 30.11 in1019.6 mb - 0.00 in0.0 mm 0.00 in0.0 mm
12:30 AM 36.7°F2.6°C 35.1°F1.7°C 94% 3.5 mph NW5.6 kmh NW 5.8 mph9.3 kmh 30.11 in1019.6 mb - 0.00 in0.0 mm 0.00 in0.0 mm
12:20 AM 36.9°F2.7°C 35.3°F1.8°C 94% 4.6 mph NW7.4 kmh NW 8.1 mph13.0 kmh 30.10 in1019.3 mb - 0.00 in0.0 mm 0.00 in0.0 mm
12:10 AM 37.0°F2.8°C 35.4°F1.9°C 94% 5.8 mph NW9.3 kmh NW 11.5 mph18.5 kmh 30.10 in1019.3 mb - 0.00 in0.0 mm 0.00 in0.0 mm
12:00 AM 37.2°F2.9°C 35.6°F2.0°C 94% 5.8 mph NW9.3 kmh NW 9.2 mph14.8 kmh 30.10 in1019.3 mb - 0.00 in0.0 mm 0.00 in0.0 mm